Time;durP1;ratioP1;P1;durP2;ratioP2;P2;SDS_P1;SDS_P2;PMS_P1;PMS_P2;Temp;Humidity;BMP_temperature;BMP_pressure;BME280_temperature;BME280_humidity;BME280_pressure;Samples;Min_cycle;Max_cycle;Signal;HPM_P1;HPM_P2
2023/05/06 00:00:44;;;;;;;;;;;21.60;56.30;;;;;;5086442;28;42919;-82
2023/05/06 00:03:10;;;;;;;;;;;21.70;56.50;;;;;;5082657;27;42931;-83
2023/05/06 00:05:35;;;;;;;;;;;21.50;56.90;;;;;;5077048;28;42990;-82
2023/05/06 00:08:01;;;;;;;;;;;21.60;56.50;;;;;;5085714;27;43061;-83
2023/05/06 00:10:26;;;;;;;;;;;21.50;56.60;;;;;;5082645;28;42931;-85
2023/05/06 00:12:52;;;;;;;;;;;21.60;56.50;;;;;;5082653;28;42980;-79
2023/05/06 00:15:17;;;;;;;;;;;21.50;56.60;;;;;;5086608;28;43537;-84
2023/05/06 00:17:43;;;;;;;;;;;21.50;56.60;;;;;;5086562;27;42975;-85
2023/05/06 00:20:09;;;;;;;;;;;;;;;;;;5086538;28;43034;-82
2023/05/06 00:22:35;;;;;;;;;;;21.60;56.60;;;;;;5086437;27;42894;-83
2023/05/06 00:25:00;;;;;;;;;;;21.50;56.70;;;;;;5086306;28;42996;-82
2023/05/06 00:27:26;;;;;;;;;;;21.70;56.70;;;;;;5086460;28;43341;-84
2023/05/06 00:29:51;;;;;;;;;;;21.60;56.80;;;;;;5086366;28;43377;-85
2023/05/06 00:32:17;;;;;;;;;;;21.60;56.80;;;;;;5086333;28;43023;-83
2023/05/06 00:34:42;;;;;;;;;;;21.60;56.80;;;;;;5085815;28;43571;-84
2023/05/06 00:37:08;;;;;;;;;;;21.60;56.90;;;;;;5085326;28;42996;-81
2023/05/06 00:39:33;;;;;;;;;;;21.50;56.80;;;;;;5085990;28;43578;-83
2023/05/06 00:42:01;;;;;;;;;;;21.50;56.90;;;;;;5086180;27;42906;-82
2023/05/06 00:44:27;;;;;;;;;;;21.40;56.80;;;;;;5084255;27;43029;-80
2023/05/06 00:46:52;;;;;;;;;;;21.60;56.90;;;;;;5084912;27;42917;-82
2023/05/06 00:49:18;;;;;;;;;;;21.50;56.90;;;;;;5085202;28;43631;-84
2023/05/06 00:51:43;;;;;;;;;;;21.50;56.90;;;;;;5085648;28;43684;-82
2023/05/06 00:54:09;;;;;;;;;;;21.50;57.00;;;;;;5085189;28;43060;-84
2023/05/06 00:56:34;;;;;;;;;;;21.60;57.10;;;;;;5085019;28;42953;-81
2023/05/06 00:59:00;;;;;;;;;;;21.60;57.10;;;;;;5084877;27;43638;-81
2023/05/06 01:01:26;;;;;;;;;;;21.70;57.20;;;;;;5085675;27;42948;-84
2023/05/06 01:03:55;;;;;;;;;;;21.60;57.20;;;;;;5085051;27;42834;-83
2023/05/06 01:06:27;;;;;;;;;;;21.60;57.30;;;;;;5085849;27;42886;-84
2023/05/06 01:09:12;;;;;;;;;;;21.60;57.20;;;;;;5084975;27;44598;-84
2023/05/06 01:11:40;;;;;;;;;;;21.70;57.30;;;;;;5072786;28;42910;-84
2023/05/06 01:14:06;;;;;;;;;;;21.60;57.40;;;;;;5084996;27;43527;-82
2023/05/06 01:16:35;;;;;;;;;;;21.50;57.30;;;;;;5086140;28;42941;-85
2023/05/06 01:19:02;;;;;;;;;;;21.60;57.30;;;;;;5085442;27;43861;-85
2023/05/06 01:21:33;;;;;;;;;;;21.60;57.40;;;;;;5082316;27;43082;-82
2023/05/06 01:23:59;;;;;;;;;;;21.50;57.30;;;;;;5085394;27;43560;-84
2023/05/06 01:26:25;;;;;;;;;;;21.60;57.40;;;;;;5085223;28;42985;-85
2023/05/06 01:28:50;;;;;;;;;;;21.70;57.50;;;;;;5085144;27;43685;-84
2023/05/06 01:31:21;;;;;;;;;;;21.60;57.40;;;;;;5084951;28;42814;-86
2023/05/06 01:33:57;;;;;;;;;;;21.50;57.40;;;;;;5084546;28;43824;-81
2023/05/06 01:36:22;;;;;;;;;;;21.50;57.40;;;;;;5085682;27;42987;-84
2023/05/06 01:38:57;;;;;;;;;;;21.70;57.60;;;;;;5085061;27;42947;-81
2023/05/06 01:41:23;;;;;;;;;;;21.70;57.50;;;;;;5084911;28;43632;-84
2023/05/06 01:43:51;;;;;;;;;;;21.60;57.50;;;;;;5084812;27;43413;-85
2023/05/06 01:46:18;;;;;;;;;;;21.60;57.60;;;;;;5084940;27;43201;-84
2023/05/06 01:48:48;;;;;;;;;;;21.60;57.40;;;;;;5084983;27;44103;-78
2023/05/06 01:51:14;;;;;;;;;;;21.60;57.40;;;;;;5085082;27;42986;-84
2023/05/06 01:53:40;;;;;;;;;;;21.60;57.50;;;;;;5084514;28;43375;-80
2023/05/06 01:56:06;;;;;;;;;;;21.60;57.30;;;;;;5082907;27;42991;-80
2023/05/06 01:58:31;;;;;;;;;;;21.50;57.40;;;;;;5084577;27;43893;-83
2023/05/06 02:00:57;;;;;;;;;;;21.60;57.70;;;;;;5083144;28;42962;-84
2023/05/06 02:03:22;;;;;;;;;;;21.60;57.70;;;;;;5084024;28;43571;-85
2023/05/06 02:05:48;;;;;;;;;;;21.50;57.70;;;;;;5084320;28;42980;-85
2023/05/06 02:08:13;;;;;;;;;;;21.50;57.70;;;;;;5083899;28;43027;-82
2023/05/06 02:10:39;;;;;;;;;;;;;;;;;;5084271;28;42953;-83
2023/05/06 02:13:05;;;;;;;;;;;21.60;57.50;;;;;;5084224;28;42966;-84
2023/05/06 02:15:30;;;;;;;;;;;21.50;57.50;;;;;;5084995;27;42963;-80
2023/05/06 02:17:56;;;;;;;;;;;21.70;57.80;;;;;;5084500;28;43078;-83
2023/05/06 02:20:21;;;;;;;;;;;21.70;57.80;;;;;;5071045;28;42997;-83
2023/05/06 02:22:47;;;;;;;;;;;21.60;57.40;;;;;;5083923;28;42957;-81
2023/05/06 02:25:12;;;;;;;;;;;21.60;57.40;;;;;;5085055;28;42921;-81
2023/05/06 02:27:38;;;;;;;;;;;21.50;57.40;;;;;;5084367;28;43029;-84
2023/05/06 02:30:05;;;;;;;;;;;21.70;57.50;;;;;;5084703;28;42932;-84
2023/05/06 02:32:30;;;;;;;;;;;21.60;57.30;;;;;;5083950;28;43593;-85
2023/05/06 02:34:56;;;;;;;;;;;21.60;57.30;;;;;;5084394;28;43187;-83
2023/05/06 02:37:21;;;;;;;;;;;21.60;57.10;;;;;;5083952;28;43502;-83
2023/05/06 02:39:47;;;;;;;;;;;21.50;57.20;;;;;;5084371;27;42957;-82
2023/05/06 02:42:13;;;;;;;;;;;21.50;57.30;;;;;;5084320;28;43268;-82
2023/05/06 02:44:39;;;;;;;;;;;21.30;57.20;;;;;;5084479;27;42989;-83
2023/05/06 02:47:04;;;;;;;;;;;21.50;57.30;;;;;;5083565;27;44314;-82
2023/05/06 02:49:30;;;;;;;;;;;21.50;57.20;;;;;;5084352;28;43004;-84
2023/05/06 02:51:55;;;;;;;;;;;21.60;57.00;;;;;;5083631;28;42842;-83
2023/05/06 02:54:21;;;;;;;;;;;21.40;56.90;;;;;;5082469;27;42966;-77
2023/05/06 02:56:46;;;;;;;;;;;21.60;57.00;;;;;;5084007;28;43024;-85
2023/05/06 02:59:14;;;;;;;;;;;21.50;56.90;;;;;;5083233;27;60659;-82
2023/05/06 03:01:39;;;;;;;;;;;21.60;57.00;;;;;;5083248;27;43460;-82
2023/05/06 03:04:05;;;;;;;;;;;21.60;56.90;;;;;;5083498;28;43017;-84
2023/05/06 03:06:31;;;;;;;;;;;21.50;56.80;;;;;;5083051;27;44440;-84
2023/05/06 03:08:56;;;;;;;;;;;21.60;56.90;;;;;;5083284;28;43528;-83
2023/05/06 03:11:22;;;;;;;;;;;21.50;57.20;;;;;;5083266;28;43587;-79
2023/05/06 03:13:48;;;;;;;;;;;21.50;57.20;;;;;;5083561;27;42949;-84
2023/05/06 03:16:13;;;;;;;;;;;21.60;57.30;;;;;;5083105;28;43030;-84
2023/05/06 03:18:39;;;;;;;;;;;21.60;57.40;;;;;;5083300;28;43334;-83
2023/05/06 03:21:04;;;;;;;;;;;21.50;57.30;;;;;;5083244;27;43735;-83
2023/05/06 03:23:30;;;;;;;;;;;21.50;57.20;;;;;;5082984;28;42952;-85
2023/05/06 03:25:56;;;;;;;;;;;21.50;57.00;;;;;;5083254;27;43055;-81
2023/05/06 03:28:22;;;;;;;;;;;21.60;57.00;;;;;;5083962;27;43061;-82
2023/05/06 03:30:47;;;;;;;;;;;21.50;56.90;;;;;;5084425;28;43646;-74
2023/05/06 03:33:13;;;;;;;;;;;21.60;57.30;;;;;;5088537;27;43147;-76
2023/05/06 03:35:38;;;;;;;;;;;21.60;56.90;;;;;;5087158;28;44048;-84
2023/05/06 03:38:04;;;;;;;;;;;21.70;56.90;;;;;;5087283;28;43054;-84
2023/05/06 03:40:30;;;;;;;;;;;21.40;57.00;;;;;;5084883;27;43566;-84
2023/05/06 03:42:55;;;;;;;;;;;21.60;57.30;;;;;;5087072;28;43142;-84
2023/05/06 03:45:21;;;;;;;;;;;21.50;57.50;;;;;;5087047;28;42954;-84
2023/05/06 03:47:47;;;;;;;;;;;;;;;;;;5084127;28;44109;-81
2023/05/06 03:50:12;;;;;;;;;;;21.50;57.00;;;;;;5086235;28;43539;-86
2023/05/06 03:52:38;;;;;;;;;;;21.60;57.00;;;;;;5087145;28;42981;-84
2023/05/06 03:55:04;;;;;;;;;;;;;;;;;;5074168;28;42957;-82
2023/05/06 03:57:29;;;;;;;;;;;21.60;57.30;;;;;;5087249;28;42976;-82
2023/05/06 03:59:55;;;;;;;;;;;21.50;57.10;;;;;;5086583;28;42950;-84
2023/05/06 04:02:20;;;;;;;;;;;21.40;56.80;;;;;;5086568;28;43042;-83
2023/05/06 04:04:46;;;;;;;;;;;21.50;56.80;;;;;;5085019;28;44107;-84
2023/05/06 04:07:11;;;;;;;;;;;21.50;56.60;;;;;;5086765;28;42985;-83
2023/05/06 04:09:37;;;;;;;;;;;21.40;56.70;;;;;;5086569;28;43071;-85
2023/05/06 04:12:02;;;;;;;;;;;21.40;56.60;;;;;;5086184;28;42972;-85
2023/05/06 04:14:28;;;;;;;;;;;21.60;57.00;;;;;;5079676;27;42839;-84
2023/05/06 04:16:54;;;;;;;;;;;;;;;;;;5079342;28;42926;-83
2023/05/06 04:19:20;;;;;;;;;;;21.40;57.40;;;;;;5086090;28;43606;-84
2023/05/06 04:21:46;;;;;;;;;;;;;;;;;;5085962;27;42880;-82
2023/05/06 04:24:14;;;;;;;;;;;21.40;57.30;;;;;;5081985;28;43888;-84
2023/05/06 04:26:40;;;;;;;;;;;21.40;57.30;;;;;;5084024;27;43119;-84
2023/05/06 04:29:06;;;;;;;;;;;21.40;57.20;;;;;;5086444;27;43566;-85
2023/05/06 04:31:33;;;;;;;;;;;21.40;57.50;;;;;;5085905;27;42867;-82
2023/05/06 04:33:59;;;;;;;;;;;;;;;;;;5085521;27;42905;-83
2023/05/06 04:36:25;;;;;;;;;;;21.30;57.60;;;;;;5086291;28;42885;-85
2023/05/06 04:38:52;;;;;;;;;;;21.40;57.60;;;;;;5085776;28;42970;-85
2023/05/06 04:41:17;;;;;;;;;;;21.50;57.50;;;;;;5086450;28;42972;-84
2023/05/06 04:43:43;;;;;;;;;;;21.30;57.60;;;;;;5085392;27;43990;-84
2023/05/06 04:46:09;;;;;;;;;;;21.40;57.60;;;;;;5085902;27;42988;-84
2023/05/06 04:48:35;;;;;;;;;;;21.40;57.70;;;;;;5086040;27;43553;-82
2023/05/06 04:51:03;;;;;;;;;;;21.40;57.30;;;;;;5085504;28;42948;-86
2023/05/06 04:53:29;;;;;;;;;;;;;;;;;;5087640;27;43406;-85
2023/05/06 04:55:55;;;;;;;;;;;;;;;;;;5094034;27;43107;-85
2023/05/06 04:58:20;;;;;;;;;;;21.60;57.50;;;;;;5084410;27;42870;-86
2023/05/06 05:00:46;;;;;;;;;;;21.40;57.60;;;;;;5085609;27;43107;-82
2023/05/06 05:03:11;;;;;;;;;;;21.50;57.70;;;;;;5084946;28;42999;-84
2023/05/06 05:05:37;;;;;;;;;;;21.50;57.80;;;;;;5093424;27;42927;-84
2023/05/06 05:08:02;;;;;;;;;;;;;;;;;;5084690;28;42951;-84
2023/05/06 05:10:28;;;;;;;;;;;21.50;57.70;;;;;;5088751;27;43160;-85
2023/05/06 05:12:53;;;;;;;;;;;21.50;57.80;;;;;;5085022;27;43399;-83
2023/05/06 05:15:20;;;;;;;;;;;21.40;57.50;;;;;;5084938;28;42852;-84
2023/05/06 05:17:45;;;;;;;;;;;21.40;57.90;;;;;;5084317;27;42881;-82
2023/05/06 05:20:11;;;;;;;;;;;21.50;57.90;;;;;;5084538;27;43001;-84
2023/05/06 05:22:36;;;;;;;;;;;21.40;57.70;;;;;;5077342;28;42940;-82
2023/05/06 05:25:03;;;;;;;;;;;;;;;;;;5072744;28;43409;-80
2023/05/06 05:27:29;;;;;;;;;;;;;;;;;;5075265;28;43426;-84
2023/05/06 05:29:55;;;;;;;;;;;21.50;57.90;;;;;;5081831;27;43164;-85
2023/05/06 05:32:20;;;;;;;;;;;21.50;58.00;;;;;;5070788;28;44021;-84
2023/05/06 05:34:46;;;;;;;;;;;21.50;58.00;;;;;;5068647;28;43139;-85
2023/05/06 05:37:11;;;;;;;;;;;21.40;58.10;;;;;;5072186;28;43007;-85
2023/05/06 05:39:37;;;;;;;;;;;21.50;58.20;;;;;;5084604;28;43087;-81
2023/05/06 05:42:02;;;;;;;;;;;21.60;58.10;;;;;;5083520;28;43725;-83
2023/05/06 05:44:28;;;;;;;;;;;;;;;;;;5083025;28;43103;-84
2023/05/06 05:46:54;;;;;;;;;;;21.50;58.20;;;;;;5082372;28;44169;-85
2023/05/06 05:49:19;;;;;;;;;;;21.40;57.90;;;;;;5083837;27;42809;-85
2023/05/06 05:51:45;;;;;;;;;;;;;;;;;;5085736;27;42932;-82
2023/05/06 05:54:11;;;;;;;;;;;21.50;57.90;;;;;;5084054;28;42962;-87
2023/05/06 05:56:36;;;;;;;;;;;21.40;57.80;;;;;;5092080;27;42952;-82
2023/05/06 05:59:02;;;;;;;;;;;21.50;57.80;;;;;;5084551;28;43014;-86
2023/05/06 06:01:27;;;;;;;;;;;21.50;57.80;;;;;;5077436;27;43134;-84
2023/05/06 06:03:54;;;;;;;;;;;;;;;;;;5080589;28;43318;-83
2023/05/06 06:06:20;;;;;;;;;;;21.50;58.10;;;;;;5077742;27;43365;-85
2023/05/06 06:08:45;;;;;;;;;;;21.60;58.10;;;;;;5072892;28;43151;-90
2023/05/06 06:11:11;;;;;;;;;;;21.60;58.00;;;;;;5067689;27;43011;-80
2023/05/06 06:13:38;;;;;;;;;;;21.50;58.20;;;;;;5076241;28;43219;-84
2023/05/06 06:16:04;;;;;;;;;;;21.50;58.20;;;;;;5084407;28;42984;-81
2023/05/06 06:18:29;;;;;;;;;;;21.50;58.20;;;;;;5077275;28;43193;-78
2023/05/06 06:20:55;;;;;;;;;;;21.50;58.40;;;;;;5072508;28;43464;-82
2023/05/06 06:23:21;;;;;;;;;;;;;;;;;;5083289;28;43029;-80
2023/05/06 06:25:46;;;;;;;;;;;21.60;58.50;;;;;;5075317;28;43783;-82
2023/05/06 06:28:12;;;;;;;;;;;21.60;58.40;;;;;;5078320;28;43053;-80
2023/05/06 06:30:37;;;;;;;;;;;21.50;58.10;;;;;;5079614;28;42894;-80
2023/05/06 06:33:03;;;;;;;;;;;21.60;58.40;;;;;;5078624;28;43128;-81
2023/05/06 06:35:28;;;;;;;;;;;21.60;58.40;;;;;;5080779;28;43341;-79
2023/05/06 06:37:54;;;;;;;;;;;;;;;;;;5067409;28;43087;-79
2023/05/06 06:40:20;;;;;;;;;;;21.80;58.30;;;;;;5065376;28;43827;-81
2023/05/06 06:42:46;;;;;;;;;;;21.60;58.20;;;;;;5080040;28;43239;-81
2023/05/06 06:45:12;;;;;;;;;;;21.50;58.10;;;;;;5083174;28;43043;-81
2023/05/06 06:47:37;;;;;;;;;;;21.60;58.10;;;;;;5083240;27;43099;-80
2023/05/06 06:50:03;;;;;;;;;;;21.60;58.20;;;;;;5080743;28;43698;-78
2023/05/06 06:52:29;;;;;;;;;;;21.60;57.90;;;;;;5070455;27;43202;-79
2023/05/06 06:54:55;;;;;;;;;;;;;;;;;;5082919;28;42978;-77
2023/05/06 06:57:21;;;;;;;;;;;;;;;;;;5084126;28;42941;-80
2023/05/06 06:59:47;;;;;;;;;;;21.40;58.00;;;;;;5063479;28;44196;-82
2023/05/06 07:02:13;;;;;;;;;;;21.60;58.10;;;;;;5076500;27;42984;-82
2023/05/06 07:04:39;;;;;;;;;;;;;;;;;;5076511;28;45471;-77
2023/05/06 07:07:05;;;;;;;;;;;;;;;;;;5074033;27;43136;-79
2023/05/06 07:09:30;;;;;;;;;;;21.60;57.60;;;;;;5073512;28;43008;-79
2023/05/06 07:11:57;;;;;;;;;;;21.60;57.60;;;;;;5086083;28;42928;-79
2023/05/06 07:14:24;;;;;;;;;;;21.50;57.10;;;;;;5087020;27;42996;-79
2023/05/06 07:16:50;;;;;;;;;;;21.50;57.60;;;;;;5078963;28;42932;-83
2023/05/06 07:19:16;;;;;;;;;;;;;;;;;;5074185;28;44110;-82
2023/05/06 07:21:41;;;;;;;;;;;;;;;;;;5080008;28;43024;-81
2023/05/06 07:24:07;;;;;;;;;;;21.50;57.70;;;;;;5075495;28;43751;-79
2023/05/06 07:26:36;;;;;;;;;;;21.60;57.90;;;;;;5087290;28;42754;-79
2023/05/06 07:29:03;;;;;;;;;;;21.60;58.20;;;;;;5087320;27;43019;-81
2023/05/06 07:31:28;;;;;;;;;;;21.60;58.00;;;;;;5085584;27;43040;-81
2023/05/06 07:33:54;;;;;;;;;;;;;;;;;;5085717;27;43899;-85
2023/05/06 07:36:20;;;;;;;;;;;21.80;57.70;;;;;;5087052;27;43009;-85
2023/05/06 07:38:45;;;;;;;;;;;21.60;57.70;;;;;;5087363;28;43032;-82
2023/05/06 07:41:11;;;;;;;;;;;21.50;57.50;;;;;;5085398;28;42953;-82
2023/05/06 07:43:36;;;;;;;;;;;21.60;57.60;;;;;;5086228;28;43065;-83
2023/05/06 07:46:02;;;;;;;;;;;21.50;57.60;;;;;;5086494;28;43296;-85
2023/05/06 07:48:28;;;;;;;;;;;;;;;;;;5086348;27;44329;-81
2023/05/06 07:50:54;;;;;;;;;;;21.50;57.70;;;;;;5086776;28;42969;-85
2023/05/06 07:53:19;;;;;;;;;;;21.40;57.80;;;;;;5085855;27;42952;-83
2023/05/06 07:55:45;;;;;;;;;;;21.60;57.30;;;;;;5086658;27;43247;-82
2023/05/06 07:58:11;;;;;;;;;;;21.40;57.70;;;;;;5082460;28;44108;-81
2023/05/06 08:00:37;;;;;;;;;;;;;;;;;;5071975;28;43033;-81
2023/05/06 08:03:02;;;;;;;;;;;;;;;;;;5073413;28;43465;-81
2023/05/06 08:05:28;;;;;;;;;;;21.60;58.10;;;;;;5079475;28;42883;-83
2023/05/06 08:07:54;;;;;;;;;;;;;;;;;;5082088;28;43563;-82
2023/05/06 08:10:21;;;;;;;;;;;21.50;57.90;;;;;;5086057;27;42988;-80
2023/05/06 08:12:46;;;;;;;;;;;21.60;58.00;;;;;;5086378;27;42931;-84
2023/05/06 08:15:12;;;;;;;;;;;21.60;57.90;;;;;;5073427;27;43012;-83
2023/05/06 08:17:37;;;;;;;;;;;21.70;58.10;;;;;;5079082;28;42970;-83
2023/05/06 08:20:03;;;;;;;;;;;21.60;58.10;;;;;;5084234;28;42979;-85
2023/05/06 08:22:29;;;;;;;;;;;21.60;58.00;;;;;;5086447;27;43059;-81
2023/05/06 08:24:56;;;;;;;;;;;21.60;58.00;;;;;;5085238;28;43170;-78
2023/05/06 08:27:21;;;;;;;;;;;21.60;58.00;;;;;;5082558;28;43056;-86
2023/05/06 08:29:47;;;;;;;;;;;21.50;58.10;;;;;;5072013;28;43047;-78
2023/05/06 08:32:12;;;;;;;;;;;21.70;57.50;;;;;;5080105;28;44614;-82
2023/05/06 08:34:44;;;;;;;;;;;21.60;58.00;;;;;;5085729;28;42994;-84
2023/05/06 08:37:09;;;;;;;;;;;21.70;58.10;;;;;;5085261;27;42959;-84
2023/05/06 08:39:35;;;;;;;;;;;21.60;58.00;;;;;;5085910;28;42971;-87
2023/05/06 08:42:01;;;;;;;;;;;21.70;58.10;;;;;;5085520;28;43059;-83
2023/05/06 08:44:27;;;;;;;;;;;21.70;58.20;;;;;;5086040;27;43075;-85
2023/05/06 08:46:53;;;;;;;;;;;21.70;58.20;;;;;;5085367;28;43530;-84
2023/05/06 08:49:19;;;;;;;;;;;21.60;58.10;;;;;;5086483;27;42941;-88
2023/05/06 08:51:47;;;;;;;;;;;21.60;57.90;;;;;;5085511;27;43066;-85
2023/05/06 08:54:13;;;;;;;;;;;21.70;58.10;;;;;;5086002;27;42930;-86
2023/05/06 08:56:41;;;;;;;;;;;21.60;58.10;;;;;;5081958;27;43678;-88
2023/05/06 08:59:08;;;;;;;;;;;21.70;58.30;;;;;;5080779;28;43114;-88
2023/05/06 09:01:34;;;;;;;;;;;21.70;58.40;;;;;;5077705;28;43425;-88
2023/05/06 09:04:00;;;;;;;;;;;21.70;58.80;;;;;;5085651;27;42980;-90
2023/05/06 09:06:34;;;;;;;;;;;21.70;58.80;;;;;;5078111;27;43664;-84
2023/05/06 09:09:06;;;;;;;;;;;;;;;;;;5079053;27;43043;-89
2023/05/06 09:11:32;;;;;;;;;;;;;;;;;;5083678;28;44986;-89
2023/05/06 09:13:58;;;;;;;;;;;;;;;;;;5083996;28;43313;-87
2023/05/06 09:16:30;;;;;;;;;;;;;;;;;;5084553;28;42927;-89
2023/05/06 09:18:59;;;;;;;;;;;21.90;59.20;;;;;;5080050;28;43050;-89
2023/05/06 09:21:25;;;;;;;;;;;;;;;;;;5081944;28;44267;-88
2023/05/06 09:23:51;;;;;;;;;;;21.80;58.90;;;;;;5085905;28;43657;-88
2023/05/06 09:26:16;;;;;;;;;;;;;;;;;;5085293;28;42933;-88
2023/05/06 09:28:42;;;;;;;;;;;;;;;;;;5082964;27;43039;-88
2023/05/06 09:31:08;;;;;;;;;;;;;;;;;;5085874;28;43716;-88
2023/05/06 09:33:36;;;;;;;;;;;;;;;;;;5085132;28;43022;-88
2023/05/06 09:36:03;;;;;;;;;;;21.80;60.50;;;;;;5083641;28;44170;-88
2023/05/06 09:38:29;;;;;;;;;;;;;;;;;;5082092;28;42956;-88
2023/05/06 09:41:07;;;;;;;;;;;;;;;;;;5081601;28;44035;-92
2023/05/06 09:43:36;;;;;;;;;;;21.80;60.10;;;;;;5076049;28;42952;-92
2023/05/06 09:46:15;;;;;;;;;;;;;;;;;;;;;
2023/05/06 09:49:00;;;;;;;;;;;21.80;60.20;;;;;;5081714;28;69907;-93
2023/05/06 09:51:27;;;;;;;;;;;21.60;60.00;;;;;;5075941;28;43133;-93
2023/05/06 09:53:53;;;;;;;;;;;;;;;;;;5085548;27;43000;-92
2023/05/06 09:56:25;;;;;;;;;;;;;;;;;;5083773;28;43455;-91
2023/05/06 09:58:51;;;;;;;;;;;21.70;56.80;;;;;;5085836;28;42851;-93
2023/05/06 10:01:17;;;;;;;;;;;21.70;58.80;;;;;;5078849;27;43356;-92
2023/05/06 10:03:53;;;;;;;;;;;21.80;60.30;;;;;;5084932;27;43014;-94
2023/05/06 10:06:22;;;;;;;;;;;21.70;60.00;;;;;;5085174;27;43115;-93
2023/05/06 10:08:47;;;;;;;;;;;21.80;59.90;;;;;;5083025;28;42384;-93
2023/05/06 10:11:20;;;;;;;;;;;;;;;;;;5077346;28;44191;-94
2023/05/06 10:19:21;;;;;;;;;;;21.90;59.50;;;;;;5087315;22;42981;-87
2023/05/06 10:21:50;;;;;;;;;;;21.70;59.70;;;;;;5085662;28;43036;-85
2023/05/06 10:24:18;;;;;;;;;;;21.80;59.90;;;;;;5067112;28;43069;-88
2023/05/06 10:26:45;;;;;;;;;;;;;;;;;;5066787;28;44644;-85
2023/05/06 10:29:12;;;;;;;;;;;21.90;59.00;;;;;;5073447;28;43557;-86
2023/05/06 10:31:38;;;;;;;;;;;;;;;;;;5081858;28;43614;-85
2023/05/06 10:34:03;;;;;;;;;;;21.70;59.80;;;;;;5084108;28;42910;-85
2023/05/06 10:36:32;;;;;;;;;;;21.90;59.90;;;;;;5080430;28;43438;-84
2023/05/06 10:38:59;;;;;;;;;;;21.80;59.80;;;;;;5081296;28;43203;-84
2023/05/06 10:41:26;;;;;;;;;;;;;;;;;;5075367;28;43316;-84
2023/05/06 10:43:55;;;;;;;;;;;21.80;59.70;;;;;;5082016;28;42922;-85
2023/05/06 10:46:22;;;;;;;;;;;21.80;59.70;;;;;;5081120;28;43405;-83
2023/05/06 10:48:56;;;;;;;;;;;21.90;59.90;;;;;;5083831;28;42888;-86
2023/05/06 10:51:22;;;;;;;;;;;;;;;;;;5083668;28;44252;-85
2023/05/06 10:53:48;;;;;;;;;;;;;;;;;;5084210;28;43012;-84
2023/05/06 10:56:14;;;;;;;;;;;;;;;;;;5082851;28;44067;-86
2023/05/06 10:58:40;;;;;;;;;;;;;;;;;;5082735;28;42890;-86
2023/05/06 11:01:06;;;;;;;;;;;;;;;;;;5079901;28;43973;-86
2023/05/06 11:03:32;;;;;;;;;;;;;;;;;;5087215;27;42894;-87
2023/05/06 11:05:58;;;;;;;;;;;22.00;59.80;;;;;;5078645;28;43827;-84
2023/05/06 11:08:24;;;;;;;;;;;21.80;60.00;;;;;;5083559;27;43063;-87
2023/05/06 11:10:50;;;;;;;;;;;;;;;;;;5074561;28;43566;-87
2023/05/06 11:13:16;;;;;;;;;;;;;;;;;;5083534;27;42905;-87
2023/05/06 11:15:45;;;;;;;;;;;;;;;;;;5072300;28;43410;-86
2023/05/06 11:18:11;;;;;;;;;;;;;;;;;;5081161;28;42966;-87
2023/05/06 11:20:36;;;;;;;;;;;;;;;;;;5082239;28;44379;-86
2023/05/06 11:23:02;;;;;;;;;;;;;;;;;;5082970;28;43090;-85
2023/05/06 11:25:28;;;;;;;;;;;;;;;;;;5081189;28;43679;-82
2023/05/06 11:27:54;;;;;;;;;;;;;;;;;;5057262;28;43280;-85
2023/05/06 11:30:20;;;;;;;;;;;;;;;;;;5073881;28;43587;-84
2023/05/06 11:32:46;;;;;;;;;;;;;;;;;;5080530;28;43113;-85
2023/05/06 11:35:12;;;;;;;;;;;;;;;;;;5068599;28;44411;-84
2023/05/06 11:37:38;;;;;;;;;;;;;;;;;;5081835;28;42958;-87
2023/05/06 11:40:05;;;;;;;;;;;;;;;;;;5081141;28;43335;-85
2023/05/06 11:42:31;;;;;;;;;;;;;;;;;;5081386;28;42764;-86
2023/05/06 11:44:56;;;;;;;;;;;;;;;;;;5083135;28;43703;-85
2023/05/06 11:47:22;;;;;;;;;;;;;;;;;;5064920;28;43105;-83
2023/05/06 11:49:48;;;;;;;;;;;;;;;;;;5082071;28;43711;-85
2023/05/06 11:52:14;;;;;;;;;;;;;;;;;;5083786;27;43016;-84
2023/05/06 11:54:40;;;;;;;;;;;;;;;;;;5086714;28;43795;-84
2023/05/06 11:57:06;;;;;;;;;;;;;;;;;;5086614;28;42764;-83
2023/05/06 11:59:32;;;;;;;;;;;22.10;59.10;;;;;;5086101;28;44423;-85
2023/05/06 12:01:58;;;;;;;;;;;;;;;;;;5086674;28;42951;-85
2023/05/06 12:04:24;;;;;;;;;;;22.00;58.80;;;;;;5086417;28;42898;-84
2023/05/06 12:06:50;;;;;;;;;;;21.90;59.50;;;;;;5086815;28;42922;-84
2023/05/06 12:09:15;;;;;;;;;;;22.10;59.80;;;;;;5081084;28;43317;-83
2023/05/06 12:11:42;;;;;;;;;;;22.00;59.70;;;;;;5078955;27;43084;-84
2023/05/06 12:14:08;;;;;;;;;;;;;;;;;;5068350;28;44448;-85
2023/05/06 12:16:42;;;;;;;;;;;;;;;;;;5067146;28;43101;-87
2023/05/06 12:19:11;;;;;;;;;;;;;;;;;;5075610;28;44138;-89
2023/05/06 12:21:43;;;;;;;;;;;;;;;;;;5347034;22;43099;-87
2023/05/06 12:24:15;;;;;;;;;;;;;;;;;;5075861;27;45419;-89
2023/05/06 12:26:42;;;;;;;;;;;;;;;;;;5079122;27;43103;-89
2023/05/06 12:29:11;;;;;;;;;;;;;;;;;;5082385;27;44922;-88
2023/05/06 12:31:37;;;;;;;;;;;21.90;58.80;;;;;;5058402;28;42924;-89
2023/05/06 12:34:05;;;;;;;;;;;21.80;59.20;;;;;;5039164;28;43993;-91
2023/05/06 12:36:46;;;;;;;;;;;22.10;59.60;;;;;;5043525;28;43134;-89
2023/05/06 12:39:16;;;;;;;;;;;22.00;59.70;;;;;;5054430;28;43754;-90
2023/05/06 12:41:47;;;;;;;;;;;21.90;59.30;;;;;;5055771;28;42965;-91
2023/05/06 12:44:54;;;;;;;;;;;21.90;59.30;;;;;;5058835;28;43098;-89
2023/05/06 12:47:20;;;;;;;;;;;21.90;59.80;;;;;;4951523;28;43090;-90
2023/05/06 12:49:48;;;;;;;;;;;22.00;60.60;;;;;;5029302;28;43580;-92
2023/05/06 12:55:09;;;;;;;;;;;21.90;60.40;;;;;;4980864;28;42973;-90
2023/05/06 13:01:07;;;;;;;;;;;22.00;60.70;;;;;;4961906;28;43325;-90
2023/05/06 13:03:47;;;;;;;;;;;;;;;;;;;;;
2023/05/06 13:12:32;;;;;;;;;;;;;;;;;;4960942;28;43775;-90
2023/05/06 13:15:28;;;;;;;;;;;;;;;;;;;;;
2023/05/06 13:17:53;;;;;;;;;;;22.00;65.80;;;;;;4968587;28;72673;-87
2023/05/06 13:20:26;;;;;;;;;;;22.00;65.50;;;;;;4964202;28;43033;-86
2023/05/06 13:22:51;;;;;;;;;;;22.00;65.70;;;;;;4957829;28;43715;-84
2023/05/06 13:25:23;;;;;;;;;;;22.00;64.80;;;;;;4955774;28;43790;-85
2023/05/06 13:27:48;;;;;;;;;;;22.10;63.50;;;;;;4959086;28;44245;-85
2023/05/06 13:30:14;;;;;;;;;;;22.10;64.30;;;;;;4951573;28;43125;-86
2023/05/06 13:32:39;;;;;;;;;;;22.00;63.00;;;;;;4982762;28;43104;-82
2023/05/06 13:35:23;;;;;;;;;;;21.80;64.40;;;;;;4973623;28;42926;-88
2023/05/06 13:37:48;;;;;;;;;;;22.10;65.30;;;;;;4988654;28;44256;-90
2023/05/06 13:40:14;;;;;;;;;;;22.10;66.30;;;;;;5022149;28;42897;-90
2023/05/06 13:42:39;;;;;;;;;;;21.90;64.10;;;;;;4999410;28;44601;-95
2023/05/06 13:45:06;;;;;;;;;;;22.00;65.30;;;;;;5013446;28;42958;-91
2023/05/06 13:47:31;;;;;;;;;;;22.00;64.00;;;;;;4997459;28;44587;-89
2023/05/06 13:49:57;;;;;;;;;;;;;;;;;;5051535;28;43007;-93
2023/05/06 13:52:23;;;;;;;;;;;22.70;64.80;;;;;;5082858;28;44483;-89
2023/05/06 13:54:49;;;;;;;;;;;21.90;65.70;;;;;;5085570;27;43049;-88
2023/05/06 13:57:14;;;;;;;;;;;21.90;67.30;;;;;;5081992;28;43612;-89
2023/05/06 13:59:40;;;;;;;;;;;21.90;66.90;;;;;;5081531;28;42959;-86
2023/05/06 14:02:05;;;;;;;;;;;22.00;66.40;;;;;;5085185;28;42939;-85
2023/05/06 14:04:31;;;;;;;;;;;22.00;64.40;;;;;;5079521;28;43064;-88
2023/05/06 14:06:58;;;;;;;;;;;21.90;65.00;;;;;;5087382;28;42903;-88
2023/05/06 14:09:24;;;;;;;;;;;22.00;67.30;;;;;;5090048;27;43181;-87
2023/05/06 14:11:50;;;;;;;;;;;22.00;66.40;;;;;;5087693;28;43510;-92
2023/05/06 14:14:15;;;;;;;;;;;22.00;67.00;;;;;;5086722;28;42748;-92
2023/05/06 14:16:41;;;;;;;;;;;22.00;66.70;;;;;;5085269;28;44883;-89
2023/05/06 14:19:06;;;;;;;;;;;22.10;62.60;;;;;;5088284;28;43235;-89
2023/05/06 14:21:32;;;;;;;;;;;21.90;63.00;;;;;;5085895;28;42961;-90
2023/05/06 14:23:57;;;;;;;;;;;22.10;61.80;;;;;;5086376;27;42989;-90
2023/05/06 14:26:23;;;;;;;;;;;21.90;61.50;;;;;;5085664;28;43563;-87
2023/05/06 14:28:48;;;;;;;;;;;22.10;61.30;;;;;;5084871;28;43057;-90
2023/05/06 14:31:14;;;;;;;;;;;22.00;60.70;;;;;;5083914;28;42893;-88
2023/05/06 14:36:28;;;;;;;;;;;22.10;63.50;;;;;;5070867;28;43956;-91
2023/05/06 14:38:54;;;;;;;;;;;22.00;65.70;;;;;;5076984;28;43037;-93
2023/05/06 14:41:28;;;;;;;;;;;22.10;61.70;;;;;;5080541;28;42810;-94
2023/05/06 14:43:54;;;;;;;;;;;22.00;61.70;;;;;;5081796;28;43058;-93
2023/05/06 14:46:23;;;;;;;;;;;22.10;67.30;;;;;;5083723;27;42988;-94
2023/05/06 14:48:48;;;;;;;;;;;22.00;63.70;;;;;;5083442;28;43314;-92
2023/05/06 14:51:14;;;;;;;;;;;22.00;63.90;;;;;;5082559;28;44060;-93
2023/05/06 14:53:39;;;;;;;;;;;22.10;63.70;;;;;;5083066;28;42994;-93
2023/05/06 14:56:06;;;;;;;;;;;22.30;64.40;;;;;;5083798;27;42846;-91
2023/05/06 14:58:32;;;;;;;;;;;22.10;67.20;;;;;;5082744;28;43101;-93
2023/05/06 15:00:57;;;;;;;;;;;22.10;63.90;;;;;;5083621;28;44281;-91
2023/05/06 15:03:23;;;;;;;;;;;22.00;63.30;;;;;;5084745;28;43038;-94
2023/05/06 15:05:49;;;;;;;;;;;22.00;63.70;;;;;;5080244;28;45773;-88